Time;durP1;ratioP1;P1;durP2;ratioP2;P2;SDS_P1;SDS_P2;PMS_P1;PMS_P2;Temp;Humidity;BMP_temperature;BMP_pressure;BME280_temperature;BME280_humidity;BME280_pressure;Samples;Min_cycle;Max_cycle;Signal;HPM_P1;HPM_P2
2023/09/16 00:02:21;;;;;;;26.48;23.67;;;;;;;20.10;100.00;100410.75;5092402;28;20028;-71
2023/09/16 00:04:46;;;;;;;25.45;22.98;;;;;;;20.51;100.00;100550.38;5092344;28;20032;-73
2023/09/16 00:07:13;;;;;;;24.85;22.55;;;;;;;20.60;100.00;100589.41;5092171;28;20020;-72
2023/09/16 00:09:40;;;;;;;27.25;24.17;;;;;;;20.58;100.00;100617.09;5092671;28;20024;-74
2023/09/16 00:12:06;;;;;;;25.55;23.15;;;;;;;20.64;100.00;100658.09;5092047;28;20149;-72
2023/09/16 00:14:31;;;;;;;24.50;22.10;;;;;;;20.15;100.00;100677.28;5073335;28;20148;-73
2023/09/16 00:17:00;;;;;;;22.98;20.65;;;;;;;20.25;100.00;100699.13;5091630;28;20032;-73
2023/09/16 00:19:26;;;;;;;21.15;19.17;;;;;;;20.36;100.00;100742.44;5091715;28;20052;-72
2023/09/16 00:21:51;;;;;;;20.88;18.88;;;;;;;20.36;100.00;100774.25;5092004;28;20125;-73
2023/09/16 00:24:18;;;;;;;22.17;20.08;;;;;;;20.19;100.00;100761.44;5091803;28;20028;-72
2023/09/16 00:26:43;;;;;;;21.42;19.23;;;;;;;20.43;100.00;100822.09;5073237;28;20035;-69
2023/09/16 00:29:09;;;;;;;20.20;18.10;;;;;;;20.14;100.00;100784.09;5091071;28;20114;-69
2023/09/16 00:31:36;;;;;;;18.90;16.67;;;;;;;20.38;100.00;100842.19;5091284;28;20048;-69
2023/09/16 00:34:03;;;;;;;17.70;15.90;;;;;;;20.00;100.00;100796.91;5090943;28;20437;-70
2023/09/16 00:36:29;;;;;;;19.02;17.23;;;;;;;20.30;100.00;100828.84;5073116;28;20115;-70
2023/09/16 00:38:54;;;;;;;18.65;16.75;;;;;;;20.08;100.00;100786.16;5089776;28;20038;-69
2023/09/16 00:41:20;;;;;;;19.23;17.25;;;;;;;20.48;100.00;100873.53;5091008;28;20040;-69
2023/09/16 00:43:45;;;;;;;18.83;17.02;;;;;;;20.45;100.00;100871.09;5090778;28;20024;-69
2023/09/16 00:46:11;;;;;;;18.48;16.67;;;;;;;20.33;100.00;100892.44;5072908;28;20429;-70
2023/09/16 00:48:37;;;;;;;18.98;16.92;;;;;;;19.88;100.00;100800.16;5073062;28;20488;-69
2023/09/16 00:51:03;;;;;;;20.58;18.55;;;;;;;20.05;100.00;100848.28;5090700;28;20067;-69
2023/09/16 00:53:29;;;;;;;20.75;18.63;;;;;;;19.83;100.00;100844.25;5091091;28;20060;-70
2023/09/16 00:55:55;;;;;;;21.00;18.92;;;;;;;19.72;100.00;100866.38;5089827;28;20066;-70
2023/09/16 00:58:21;;;;;;;23.00;18.33;;;;;;;19.39;100.00;100819.09;5090390;28;20028;-70
2023/09/16 01:00:47;;;;;;;20.10;18.15;;;;;;;19.79;100.00;100886.63;5090805;28;20028;-69
2023/09/16 01:03:14;;;;;;;21.30;19.08;;;;;;;19.83;100.00;100897.63;5090965;28;20088;-71
2023/09/16 01:05:39;;;;;;;20.30;18.33;;;;;;;20.11;100.00;100936.59;5091001;28;20525;-71
2023/09/16 01:08:05;;;;;;;20.42;18.63;;;;;;;19.81;100.00;100925.25;5072754;28;20123;-70
2023/09/16 01:10:32;;;;;;;20.45;18.38;;;;;;;19.50;100.00;100894.19;5089153;28;20016;-70
2023/09/16 01:12:58;;;;;;;20.13;18.02;;;;;;;20.17;100.00;100992.25;5072315;28;20418;-70
2023/09/16 01:15:31;;;;;;;20.30;18.20;;;;;;;20.41;100.00;100997.03;5090859;28;20028;-70
2023/09/16 01:18:15;;;;;;;21.73;19.58;;;;;;;20.37;100.00;101002.44;5090718;28;20070;-70
2023/09/16 01:20:41;;;;;;;21.70;19.52;;;;;;;19.66;100.00;100936.38;5090663;28;20032;-70
2023/09/16 01:23:07;;;;;;;20.25;18.33;;;;;;;19.55;100.00;100905.13;5092637;28;20024;-69
2023/09/16 01:25:33;;;;;;;20.13;17.95;;;;;;;19.81;100.00;100951.06;5094501;28;20028;-70
2023/09/16 01:27:58;;;;;;;19.50;17.58;;;;;;;20.20;100.00;101016.25;5094879;28;20031;-71
2023/09/16 01:30:26;;;;;;;20.85;18.70;;;;;;;19.93;100.00;100996.94;5094548;28;20455;-71
2023/09/16 01:33:08;;;;;;;19.55;17.63;;;;;;;20.23;100.00;100990.25;5094563;28;20036;-71
2023/09/16 01:35:37;;;;;;;19.48;17.58;;;;;;;19.99;100.00;100969.97;5094770;28;20036;-71
2023/09/16 01:38:05;;;;;;;19.60;17.70;;;;;;;20.32;100.00;101007.84;5094499;28;20024;-70
2023/09/16 01:40:31;;;;;;;21.42;19.33;;;;;;;19.90;100.00;101028.06;5076486;28;20032;-70
2023/09/16 01:42:58;;;;;;;23.48;21.23;;;;;;;19.66;100.00;100993.13;5076258;28;20414;-70
2023/09/16 01:45:24;;;;;;;22.45;20.23;;;;;;;19.48;100.00;100984.56;5076430;28;20402;-70
2023/09/16 01:47:50;;;;;;;21.55;19.55;;;;;;;19.62;100.00;100995.03;5076360;28;20024;-70
2023/09/16 01:50:15;;;;;;;21.95;19.75;;;;;;;19.47;100.00;100938.19;5094205;28;20028;-70
2023/09/16 01:52:41;;;;;;;23.13;20.83;;;;;;;19.71;100.00;101027.28;5094347;28;20052;-70
2023/09/16 01:55:07;;;;;;;23.35;21.15;;;;;;;19.50;100.00;100987.06;5094545;28;20031;-70
2023/09/16 01:57:32;;;;;;;22.88;20.50;;;;;;;20.04;100.00;101045.47;5075018;28;20482;-70
2023/09/16 01:59:58;;;;;;;24.50;22.20;;;;;;;20.03;100.00;101036.88;5074388;28;20036;-70
2023/09/16 02:02:23;;;;;;;24.77;22.17;;;;;;;19.67;100.00;100976.72;5075019;28;20549;-70
2023/09/16 02:04:48;;;;;;;25.52;22.95;;;;;;;19.59;100.00;100941.00;5073880;28;20036;-70
2023/09/16 02:07:14;;;;;;;27.77;24.48;;;;;;;19.22;100.00;100886.09;5073256;28;20032;-70
2023/09/16 02:09:41;;;;;;;25.75;22.95;;;;;;;19.73;100.00;100956.63;5072409;28;20037;-71
2023/09/16 02:12:06;;;;;;;25.92;23.35;;;;;;;19.85;100.00;100988.72;5072616;28;20051;-70
2023/09/16 02:14:37;;;;;;;20.83;18.60;;;;;;;19.47;100.00;100935.63;5073510;28;20491;-70
2023/09/16 02:17:03;;;;;;;22.93;18.80;;;;;;;19.79;100.00;100989.88;5073734;28;20028;-70
2023/09/16 02:19:29;;;;;;;25.65;21.42;;;;;;;19.18;100.00;100923.25;5073335;28;20025;-69
2023/09/16 02:21:54;;;;;;;24.13;21.73;;;;;;;19.27;100.00;100933.97;5073761;28;20030;-70
2023/09/16 02:24:20;;;;;;;22.80;20.42;;;;;;;19.11;100.00;100911.56;5073559;28;20024;-71
2023/09/16 02:26:45;;;;;;;24.48;20.85;;;;;;;18.93;100.00;100893.50;5073444;28;20028;-70
2023/09/16 02:29:10;;;;;;;22.08;19.70;;;;;;;19.30;100.00;100959.59;5073561;28;20414;-71
2023/09/16 02:31:36;;;;;;;21.83;19.63;;;;;;;19.15;100.00;100951.78;5073044;28;20041;-70
2023/09/16 02:34:02;;;;;;;20.55;18.58;;;;;;;19.13;100.00;100933.81;5071881;28;20037;-71
2023/09/16 02:36:28;;;;;;;20.17;17.90;;;;;;;19.26;100.00;100918.56;5073221;28;20027;-71
2023/09/16 02:38:53;;;;;;;21.65;19.35;;;;;;;18.93;100.00;100883.19;5060881;28;20037;-72
2023/09/16 02:41:19;;;;;;;24.88;22.20;;;;;;;19.07;100.00;100899.75;5060193;28;20482;-70
2023/09/16 02:43:45;;;;;;;23.88;21.50;;;;;;;18.70;100.00;100846.53;5072955;28;20043;-70
2023/09/16 02:46:10;;;;;;;22.88;20.40;;;;;;;19.31;100.00;100955.28;5072322;28;20788;-70
2023/09/16 02:48:36;;;;;;;23.73;21.33;;;;;;;19.25;100.00;100968.47;5073398;28;20028;-70
2023/09/16 02:51:03;;;;;;;24.20;21.58;;;;;;;19.27;100.00;100923.66;5072615;28;20041;-70
2023/09/16 02:53:29;;;;;;;23.75;21.30;;;;;;;19.43;100.00;100970.22;5072982;28;20054;-69
2023/09/16 02:55:55;;;;;;;23.10;20.88;;;;;;;19.40;100.00;100968.59;5073119;28;20029;-69
2023/09/16 02:58:20;;;;;;;20.02;17.92;;;;;;;19.64;100.00;100964.00;5055083;28;20032;-70
2023/09/16 03:00:47;;;;;;;21.27;18.48;;;;;;;19.39;100.00;100886.97;5071040;28;20098;-70
2023/09/16 03:03:13;;;;;;;25.45;22.48;;;;;;;19.49;100.00;100944.94;5070491;28;20028;-70
2023/09/16 03:05:40;;;;;;;23.90;21.38;;;;;;;19.25;100.00;100940.13;5072660;28;20039;-69
2023/09/16 03:08:05;;;;;;;24.88;22.38;;;;;;;19.42;100.00;100946.16;5072884;28;20024;-70
2023/09/16 03:10:33;;;;;;;24.80;22.23;;;;;;;18.93;100.00;100854.84;5054730;28;20093;-70
2023/09/16 03:12:59;;;;;;;23.88;21.38;;;;;;;19.12;100.00;100880.56;5054578;28;20078;-71
2023/09/16 03:15:24;;;;;;;22.45;20.27;;;;;;;18.99;100.00;100900.13;5072779;28;20028;-71
2023/09/16 03:17:49;;;;;;;26.92;20.95;;;;;;;19.56;100.00;100955.78;5072602;28;20032;-71
2023/09/16 03:20:15;;;;;;;21.77;19.67;;;;;;;19.05;100.00;100913.53;5054117;28;20051;-71
2023/09/16 03:22:40;;;;;;;22.33;20.05;;;;;;;19.19;100.00;100924.94;5072531;28;20060;-71
2023/09/16 03:25:06;;;;;;;22.48;20.17;;;;;;;19.18;100.00;100957.63;5072543;28;20490;-71
2023/09/16 03:27:31;;;;;;;21.92;19.25;;;;;;;19.28;100.00;100951.09;5072133;28;20033;-70
2023/09/16 03:29:57;;;;;;;22.20;19.90;;;;;;;18.64;100.00;100855.38;5072055;28;20029;-70
2023/09/16 03:32:27;;;;;;;19.10;17.13;;;;;;;19.55;100.00;100948.97;5053770;28;20048;-69
2023/09/16 03:34:52;;;;;;;22.00;17.63;;;;;;;19.46;100.00;100941.66;5072395;28;20118;-70
2023/09/16 03:37:18;;;;;;;20.73;18.40;;;;;;;19.40;100.00;100919.59;5054295;28;22155;-70
2023/09/16 03:39:43;;;;;;;23.55;19.33;;;;;;;19.15;100.00;100866.69;5072223;28;20036;-70
2023/09/16 03:42:09;;;;;;;25.73;21.60;;;;;;;19.38;100.00;100918.84;5054055;28;20039;-70
2023/09/16 03:44:34;;;;;;;23.75;21.33;;;;;;;19.29;100.00;100929.59;5071888;28;20032;-71
2023/09/16 03:46:59;;;;;;;28.33;22.98;;;;;;;18.54;100.00;100818.06;5070536;28;20098;-70
2023/09/16 03:49:25;;;;;;;23.90;21.50;;;;;;;18.81;100.00;100872.63;5059152;28;20029;-70
2023/09/16 03:51:50;;;;;;;25.85;22.92;;;;;;;18.58;100.00;100853.09;5071288;28;20487;-70
2023/09/16 03:54:16;;;;;;;24.95;21.90;;;;;;;18.65;100.00;100902.59;5069862;28;20402;-72
2023/09/16 03:56:41;;;;;;;25.42;22.63;;;;;;;19.07;100.00;101000.28;5070563;28;20388;-72
2023/09/16 03:59:06;;;;;;;23.45;21.20;;;;;;;18.94;100.00;100956.19;5070840;28;20027;-72
2023/09/16 04:01:32;;;;;;;23.67;21.40;;;;;;;19.07;100.00;100962.47;5092003;28;20032;-72
2023/09/16 04:03:58;;;;;;;26.58;22.98;;;;;;;19.12;100.00;100999.16;5074775;28;20117;-72
2023/09/16 04:06:23;;;;;;;26.25;22.10;;;;;;;19.18;100.00;100995.44;5093291;28;20555;-71
2023/09/16 04:08:49;;;;;;;23.85;21.55;;;;;;;18.67;100.00;100891.31;5091668;28;20413;-70
2023/09/16 04:11:14;;;;;;;24.08;21.63;;;;;;;18.72;100.00;100930.56;5073299;28;20024;-70
2023/09/16 04:13:39;;;;;;;21.52;19.20;;;;;;;19.24;100.00;100990.00;5091757;28;20406;-72
2023/09/16 04:16:05;;;;;;;23.00;20.60;;;;;;;19.00;100.00;100930.13;5091512;28;20027;-71
2023/09/16 04:18:31;;;;;;;22.02;19.77;;;;;;;19.47;100.00;100997.53;5090890;28;20100;-71
2023/09/16 04:20:56;;;;;;;24.15;21.55;;;;;;;19.12;100.00;100990.56;5073461;28;20042;-70
2023/09/16 04:23:22;;;;;;;23.63;21.20;;;;;;;18.89;100.00;100974.47;5091529;28;20032;-70
2023/09/16 04:25:58;;;;;;;23.98;21.58;;;;;;;18.78;100.00;100930.28;5075314;28;20534;-71
2023/09/16 04:28:24;;;;;;;23.95;21.70;;;;;;;19.40;100.00;101007.31;5071085;28;20541;-71
2023/09/16 04:30:51;;;;;;;27.38;24.25;;;;;;;19.32;100.00;101011.97;5071176;28;20048;-71
2023/09/16 04:33:20;;;;;;;26.90;24.08;;;;;;;18.98;100.00;100932.78;5053051;28;20044;-70
2023/09/16 04:35:47;;;;;;;27.00;24.25;;;;;;;19.42;100.00;101007.22;5070876;28;20510;-72
2023/09/16 04:38:13;;;;;;;28.70;25.60;;;;;;;19.29;100.00;100993.22;5070943;28;20141;-72
2023/09/16 04:40:41;;;;;;;30.35;26.85;;;;;;;19.02;100.00;100941.19;5043219;28;20033;-72
2023/09/16 04:43:07;;;;;;;29.63;26.70;;;;;;;19.09;100.00;100986.44;5033287;28;20028;-70
2023/09/16 04:45:32;;;;;;;29.27;26.30;;;;;;;18.65;100.00;100911.16;5050534;28;20024;-70
2023/09/16 04:47:58;;;;;;;31.77;27.30;;;;;;;19.07;100.00;100957.31;5051126;28;20567;-71
2023/09/16 04:50:25;;;;;;;28.13;25.23;;;;;;;19.18;100.00;100977.41;5051040;28;20025;-70
2023/09/16 04:52:51;;;;;;;28.83;26.10;;;;;;;18.88;100.00;100928.13;5050847;28;20035;-70
2023/09/16 04:55:16;;;;;;;31.13;27.75;;;;;;;19.08;100.00;100987.31;5032806;28;20116;-71
2023/09/16 04:57:42;;;;;;;32.22;28.85;;;;;;;18.71;100.00;100910.88;5049833;28;20069;-71
2023/09/16 05:00:08;;;;;;;31.27;28.05;;;;;;;19.01;100.00;100976.44;5054530;28;20067;-72
2023/09/16 05:02:33;;;;;;;31.00;27.83;;;;;;;19.22;100.00;100984.09;5053174;28;20041;-72
2023/09/16 05:05:00;;;;;;;32.30;28.90;;;;;;;19.29;100.00;100991.47;5071173;28;20029;-72
2023/09/16 05:07:26;;;;;;;30.02;26.92;;;;;;;19.43;100.00;100955.53;5053148;28;20025;-73
2023/09/16 05:09:51;;;;;;;31.25;28.15;;;;;;;19.11;100.00;100978.59;5070596;28;20040;-72
2023/09/16 05:12:17;;;;;;;32.90;29.48;;;;;;;18.98;100.00;100968.03;5052583;28;20037;-72
2023/09/16 05:14:42;;;;;;;30.83;27.77;;;;;;;19.37;100.00;100986.78;5052530;28;20032;-73
2023/09/16 05:17:07;;;;;;;32.33;29.13;;;;;;;19.61;100.00;100995.94;5070667;28;20475;-73
2023/09/16 05:19:33;;;;;;;31.02;27.95;;;;;;;19.57;100.00;100944.56;5070510;28;20116;-73
2023/09/16 05:21:58;;;;;;;31.60;28.50;;;;;;;19.76;100.00;101000.38;5070903;28;20033;-73
2023/09/16 05:24:24;;;;;;;32.17;28.73;;;;;;;19.78;100.00;100944.34;5071003;28;20032;-72
2023/09/16 05:26:49;;;;;;;29.58;26.67;;;;;;;20.20;100.00;100967.19;5070792;28;20028;-73
2023/09/16 05:29:15;;;;;;;28.15;25.17;;;;;;;20.67;100.00;101013.78;5070598;28;20115;-72
2023/09/16 05:31:40;;;;;;;30.25;26.92;;;;;;;20.24;100.00;100966.09;5070057;28;20102;-71
2023/09/16 05:34:05;;;;;;;28.73;25.95;;;;;;;20.19;100.00;100970.66;5052257;28;20062;-71
2023/09/16 05:36:32;;;;;;;29.27;26.23;;;;;;;20.56;100.00;101014.31;5068672;28;20041;-71
2023/09/16 05:38:58;;;;;;;26.88;24.23;;;;;;;21.06;100.00;101009.06;5052667;28;20085;-71
2023/09/16 05:41:23;;;;;;;29.00;26.00;;;;;;;21.00;100.00;101013.69;5069979;28;20526;-71
2023/09/16 05:43:48;;;;;;;26.70;23.80;;;;;;;21.12;100.00;100953.56;5070440;28;20040;-71
2023/09/16 05:46:15;;;;;;;26.52;23.73;;;;;;;21.62;100.00;101013.69;5051947;28;20028;-70
2023/09/16 05:48:41;;;;;;;26.90;23.83;;;;;;;21.85;100.00;101008.03;5051223;28;20036;-69
2023/09/16 05:51:08;;;;;;;26.58;24.08;;;;;;;21.87;100.00;101013.97;5070390;28;20029;-69
2023/09/16 05:53:33;;;;;;;27.77;25.17;;;;;;;21.62;100.00;101012.84;5052290;28;20028;-70
2023/09/16 05:56:04;;;;;;;25.40;23.00;;;;;;;22.21;100.00;101033.53;5073799;28;20035;-70
2023/09/16 05:58:30;;;;;;;25.70;23.27;;;;;;;22.06;100.00;100983.47;5074469;28;20067;-70
2023/09/16 06:00:56;;;;;;;26.10;23.33;;;;;;;21.09;100.00;100993.41;5070286;28;20286;-70
2023/09/16 06:03:22;;;;;;;24.38;21.98;;;;;;;21.66;100.00;101015.16;5070103;28;20029;-70
2023/09/16 06:05:48;;;;;;;23.25;20.85;;;;;;;22.54;100.00;101091.16;5069180;28;20037;-70
2023/09/16 06:08:14;;;;;;;21.38;19.23;;;;;;;22.50;100.00;101078.50;5071474;28;20107;-70
2023/09/16 06:10:39;;;;;;;21.52;19.42;;;;;;;23.21;100.00;101103.50;5056889;28;20033;-70
2023/09/16 06:13:05;;;;;;;23.20;21.00;;;;;;;23.19;100.00;101102.78;5073895;28;20086;-71
2023/09/16 06:15:30;;;;;;;20.73;18.58;;;;;;;22.90;100.00;101122.69;5073237;28;20029;-70
2023/09/16 06:17:56;;;;;;;22.48;18.58;;;;;;;22.53;100.00;101060.97;5059025;28;20025;-71
2023/09/16 06:20:21;;;;;;;19.98;18.13;;;;;;;23.48;100.00;101068.03;5046881;28;20033;-69
2023/09/16 06:22:47;;;;;;;18.13;16.23;;;;;;;24.14;100.00;101125.22;5060304;28;20032;-70
2023/09/16 06:25:12;;;;;;;19.67;17.15;;;;;;;23.31;100.00;101134.91;5054431;28;20461;-71
2023/09/16 06:27:38;;;;;;;18.90;17.27;;;;;;;23.20;100.00;101096.63;5053217;28;20082;-70
2023/09/16 06:30:04;;;;;;;20.15;16.25;;;;;;;23.84;100.00;101101.22;5068688;28;20037;-71
2023/09/16 06:32:29;;;;;;;18.00;16.30;;;;;;;;;;5052409;28;20044;-69
2023/09/16 06:34:54;;;;;;;17.95;16.25;;;;;;;24.17;100.00;101108.56;5053423;28;20452;-69
2023/09/16 06:37:20;;;;;;;17.70;15.98;;;;;;;23.50;100.00;101050.59;5053051;28;20029;-71
2023/09/16 06:39:47;;;;;;;17.00;15.32;;;;;;;23.38;100.00;101066.13;5051241;28;20104;-70
2023/09/16 06:42:13;;;;;;;17.15;14.90;;;;;;;23.21;100.00;101003.09;5053060;28;20029;-69
2023/09/16 06:44:38;;;;;;;17.67;15.93;;;;;;;23.97;100.00;101048.31;5052845;28;20041;-71
2023/09/16 06:47:03;;;;;;;16.25;14.30;;;;;;;24.32;100.00;101030.41;5052992;28;20029;-72
2023/09/16 06:49:29;;;;;;;14.98;13.48;;;;;;;;;;5051852;28;20533;-69
2023/09/16 06:51:54;;;;;;;15.55;13.82;;;;;;;24.50;100.00;101036.13;5051722;28;20029;-69
2023/09/16 06:54:19;;;;;;;16.77;15.15;;;;;;;24.57;100.00;101084.16;5053237;28;20502;-71
2023/09/16 06:56:45;;;;;;;17.05;15.45;;;;;;;24.34;100.00;101043.31;5072447;28;20029;-69
2023/09/16 06:59:11;;;;;;;17.52;14.98;;;;;;;24.32;100.00;101011.38;5054566;28;20055;-70
2023/09/16 07:01:36;;;;;;;17.63;15.82;;;;;;;24.94;100.00;100958.38;5081617;28;20035;-70
2023/09/16 07:04:02;;;;;;;15.75;14.20;;;;;;;25.89;100.00;100953.09;5074827;28;20032;-70
2023/09/16 07:06:27;;;;;;;15.88;14.50;;;;;;;25.58;100.00;100791.25;5092662;28;20031;-73
2023/09/16 07:08:53;;;;;;;17.35;15.55;;;;;;;25.84;100.00;100841.34;5092875;28;20024;-72
2023/09/16 07:11:18;;;;;;;16.02;14.55;;;;;;;26.04;100.00;100766.78;5074135;28;20038;-71
2023/09/16 07:13:44;;;;;;;14.20;12.80;;;;;;;25.69;100.00;100785.22;5092737;28;20028;-74
2023/09/16 07:16:13;;;;;;;14.30;12.93;;;;;;;26.05;100.00;100763.25;5084763;28;20036;-73
2023/09/16 07:18:39;;;;;;;13.93;12.48;;;;;;;25.87;100.00;100743.84;5072392;28;20032;-72
2023/09/16 07:21:05;;;;;;;14.82;13.40;;;;;;;26.05;100.00;100719.75;5053553;28;20417;-70
2023/09/16 07:23:30;;;;;;;13.85;12.43;;;;;;;26.94;100.00;100737.66;5072529;28;20076;-71
2023/09/16 07:25:59;;;;;;;12.77;11.48;;;;;;;27.01;100.00;100749.25;5071770;28;20029;-68
2023/09/16 07:28:27;;;;;;;12.57;10.32;;;;;;;26.81;100.00;100825.78;5072277;28;20028;-70
2023/09/16 07:30:53;;;;;;;12.90;11.70;;;;;;;26.71;100.00;100824.88;5071327;28;20053;-69
2023/09/16 07:33:18;;;;;;;11.93;10.75;;;;;;;26.44;100.00;100862.63;5072251;28;20100;-70
2023/09/16 07:35:43;;;;;;;11.70;9.35;;;;;;;26.46;100.00;100944.22;5071753;28;20035;-68
2023/09/16 07:38:09;;;;;;;11.55;10.40;;;;;;;27.21;100.00;101085.38;5051222;28;20094;-70
2023/09/16 07:40:37;;;;;;;10.27;9.38;;;;;;;27.41;100.00;101283.25;5053791;28;20475;-72
2023/09/16 07:43:06;;;;;;;12.55;10.20;;;;;;;28.04;100.00;101578.22;5063276;28;20035;-73
2023/09/16 07:45:31;;;;;;;9.45;8.55;;;;;;;27.43;100.00;102214.47;5052433;28;20518;-71
2023/09/16 07:47:57;;;;;;;11.75;9.27;;;;;;;27.05;100.00;103046.81;5051461;28;20036;-72
2023/09/16 07:50:22;;;;;;;10.32;9.32;;;;;;;27.17;100.00;103345.06;5050340;28;20414;-71
2023/09/16 07:52:47;;;;;;;10.60;9.35;;;;;;;26.97;100.00;104164.78;5051938;28;20029;-71
2023/09/16 07:55:13;;;;;;;10.70;9.60;;;;;;;27.03;100.00;104191.59;5049923;28;20498;-70
2023/09/16 07:57:38;;;;;;;10.95;9.95;;;;;;;26.85;100.00;104118.97;5051802;28;20040;-70
2023/09/16 08:00:07;;;;;;;11.07;9.80;;;;;;;26.64;100.00;104103.91;5050500;28;20577;-70
2023/09/16 08:02:35;;;;;;;10.60;9.60;;;;;;;26.41;100.00;104140.25;5033729;28;20494;-72
2023/09/16 08:05:00;;;;;;;12.15;10.23;;;;;;;27.10;100.00;104173.97;5050366;28;20036;-72
2023/09/16 08:07:26;;;;;;;11.65;10.52;;;;;;;27.17;100.00;104151.97;5033589;28;20029;-71
2023/09/16 08:09:51;;;;;;;13.05;9.98;;;;;;;26.66;100.00;104102.09;5050992;28;20483;-70
2023/09/16 08:12:19;;;;;;;10.05;9.05;;;;;;;26.68;100.00;104131.66;5051841;28;20036;-70
2023/09/16 08:14:45;;;;;;;13.60;9.50;;;;;;;25.81;100.00;103990.53;5051615;28;20029;-70
2023/09/16 08:17:10;;;;;;;11.48;10.23;;;;;;;26.36;100.00;104084.69;5051456;28;20032;-71
2023/09/16 08:19:36;;;;;;;11.82;10.60;;;;;;;26.23;100.00;104055.47;5051283;28;20064;-70
2023/09/16 08:22:01;;;;;;;12.13;10.98;;;;;;;25.59;100.00;103972.84;5033216;28;20037;-70
2023/09/16 08:24:27;;;;;;;17.63;11.48;;;;;;;26.04;100.00;104006.41;5066930;28;20054;-71
2023/09/16 08:26:52;;;;;;;14.07;11.05;;;;;;;26.23;100.00;103981.50;5053781;28;20029;-71
2023/09/16 08:29:18;;;;;;;12.50;11.30;;;;;;;26.42;100.00;104034.91;5071560;28;20079;-71
2023/09/16 08:31:43;;;;;;;14.68;12.13;;;;;;;26.00;100.00;104018.69;5070248;28;20076;-72
2023/09/16 08:34:09;;;;;;;12.40;11.25;;;;;;;26.71;100.00;104039.28;5070831;28;20115;-72
2023/09/16 08:36:34;;;;;;;13.15;11.88;;;;;;;27.08;100.00;104072.06;5069850;28;20067;-71
2023/09/16 08:38:59;;;;;;;12.43;11.07;;;;;;;27.02;100.00;104110.63;5070803;28;20120;-71
2023/09/16 08:41:39;;;;;;;14.23;11.05;;;;;;;27.74;100.00;104197.25;5069239;28;20544;-70
2023/09/16 08:44:07;;;;;;;17.45;10.57;;;;;;;27.23;100.00;104204.94;5070602;28;20108;-72
2023/09/16 08:46:40;;;;;;;11.48;10.23;;;;;;;26.96;100.00;104280.69;5070853;28;20532;-72
2023/09/16 08:49:09;;;;;;;11.20;10.00;;;;;;;27.30;100.00;104219.53;5053192;28;20036;-72
2023/09/16 08:51:39;;;;;;;14.00;10.45;;;;;;;27.42;100.00;104040.47;5064951;28;20071;-71
2023/09/16 08:54:07;;;;;;;11.60;10.50;;;;;;;28.45;100.00;103911.88;5049641;28;20036;-72
2023/09/16 08:56:33;;;;;;;12.35;11.00;;;;;;;27.30;100.00;103836.88;5032764;28;20029;-71
2023/09/16 08:58:59;;;;;;;14.70;11.32;;;;;;;27.22;100.00;103844.16;5049403;28;20707;-71
2023/09/16 09:01:25;;;;;;;11.38;10.38;;;;;;;27.15;100.00;103903.66;5033021;28;20072;-71
2023/09/16 09:03:50;;;;;;;11.98;10.77;;;;;;;27.37;100.00;103971.78;5058023;28;20431;-69
2023/09/16 09:06:17;;;;;;;11.10;10.00;;;;;;;28.01;100.00;104452.06;5070973;28;20467;-72
2023/09/16 09:08:42;;;;;;;12.73;10.38;;;;;;;26.35;100.00;104264.00;5069065;28;20062;-71
2023/09/16 09:11:12;;;;;;;11.82;10.63;;;;;;;26.82;100.00;104317.63;5055312;28;20552;-69
2023/09/16 09:13:40;;;;;;;11.57;10.43;;;;;;;26.98;100.00;104352.09;5061195;28;20035;-72
2023/09/16 09:16:06;;;;;;;13.52;10.45;;;;;;;27.03;100.00;104348.44;5072012;28;20112;-71
2023/09/16 09:18:33;;;;;;;14.05;10.65;;;;;;;26.85;100.00;104355.91;5052033;28;20123;-72
2023/09/16 09:20:59;;;;;;;13.30;10.38;;;;;;;26.17;100.00;104310.56;5070445;28;20035;-69
2023/09/16 09:23:26;;;;;;;12.13;10.77;;;;;;;26.96;100.00;104450.59;5070356;28;20410;-68
2023/09/16 09:25:51;;;;;;;13.10;10.88;;;;;;;27.38;100.00;104466.06;5069959;28;20037;-71
2023/09/16 09:28:17;;;;;;;14.80;11.48;;;;;;;28.21;100.00;104473.28;5052391;28;20543;-69
2023/09/16 09:30:42;;;;;;;14.05;11.20;;;;;;;27.77;100.00;104324.53;5069724;28;20086;-70
2023/09/16 09:33:15;;;;;;;14.60;11.70;;;;;;;28.52;100.00;104421.66;5051878;28;20028;-70
2023/09/16 09:35:41;;;;;;;13.18;11.05;;;;;;;27.84;100.00;104260.59;5052241;28;20550;-70
2023/09/16 09:38:06;;;;;;;14.00;11.07;;;;;;;28.36;100.00;104200.41;5070200;28;20032;-70
2023/09/16 09:40:32;;;;;;;12.38;11.13;;;;;;;28.72;100.00;104059.34;5069925;28;20058;-69
2023/09/16 09:42:59;;;;;;;13.63;11.63;;;;;;;27.86;100.00;103833.03;5070132;28;20143;-72
2023/09/16 09:45:25;;;;;;;14.55;12.02;;;;;;;27.37;100.00;103789.56;5056341;28;20467;-73
2023/09/16 09:47:52;;;;;;;14.85;11.15;;;;;;;28.78;100.00;103797.00;5055532;28;20090;-72
2023/09/16 09:50:20;;;;;;;12.43;11.05;;;;;;;29.31;100.00;103673.97;5074326;28;20028;-69
2023/09/16 09:52:46;;;;;;;13.05;11.75;;;;;;;29.05;100.00;103429.56;5073877;28;20039;-71
2023/09/16 09:55:14;;;;;;;15.60;11.93;;;;;;;28.53;100.00;103330.81;5055932;28;20052;-70
2023/09/16 09:57:40;;;;;;;16.02;11.65;;;;;;;28.03;100.00;103249.53;5052526;28;20029;-71
2023/09/16 10:00:06;;;;;;;13.70;11.85;;;;;;;27.56;100.00;103188.16;5054211;28;20032;-70
2023/09/16 10:02:32;;;;;;;13.05;11.57;;;;;;;28.60;100.00;103188.19;5052857;28;20037;-70
2023/09/16 10:05:05;;;;;;;17.63;11.82;;;;;;;27.93;100.00;103056.38;5055430;28;20414;-69
2023/09/16 10:07:31;;;;;;;13.43;11.52;;;;;;;27.13;100.00;103044.69;5070668;28;20060;-70
2023/09/16 10:09:57;;;;;;;13.35;11.98;;;;;;;27.97;100.00;103129.44;5059321;28;20028;-70
2023/09/16 10:12:23;;;;;;;12.60;11.38;;;;;;;27.65;100.00;103036.00;5059531;28;20036;-69
2023/09/16 10:14:49;;;;;;;13.13;11.77;;;;;;;28.46;100.00;103079.78;5053649;28;20055;-70
2023/09/16 10:17:15;;;;;;;13.98;12.13;;;;;;;28.29;100.00;102955.84;5053743;28;20037;-70
2023/09/16 10:19:42;;;;;;;12.85;11.65;;;;;;;27.80;100.00;102791.91;5035162;28;20029;-70
2023/09/16 10:22:08;;;;;;;15.43;11.90;;;;;;;28.13;100.00;102838.94;5053576;28;20063;-70
2023/09/16 10:24:35;;;;;;;13.10;11.77;;;;;;;28.18;100.00;102761.00;5053445;28;20057;-72
2023/09/16 10:27:15;;;;;;;12.88;11.48;;;;;;;27.81;100.00;102750.91;5053570;28;20033;-70
2023/09/16 10:29:42;;;;;;;14.63;10.85;;;;;;;29.10;100.00;102769.47;5035407;28;20033;-70
2023/09/16 10:32:08;;;;;;;14.43;11.95;;;;;;;29.04;100.00;102656.25;5060110;28;20040;-69
2023/09/16 10:34:37;;;;;;;19.92;13.85;;;;;;;29.93;100.00;102668.91;5074601;28;20028;-70
2023/09/16 10:37:03;;;;;;;13.88;11.52;;;;;;;28.78;100.00;102513.78;5073772;28;20185;-72
2023/09/16 10:39:31;;;;;;;14.88;11.63;;;;;;;28.84;100.00;102550.06;5072424;28;20507;-73
2023/09/16 10:41:57;;;;;;;13.48;11.48;;;;;;;29.08;100.00;102463.78;5071421;28;20501;-72
2023/09/16 10:44:24;;;;;;;16.65;11.80;;;;;;;29.53;100.00;102570.94;5071924;28;20035;-73
2023/09/16 10:46:50;;;;;;;12.93;11.23;;;;;;;28.70;100.00;102468.06;5054764;28;20032;-73
2023/09/16 10:49:16;;;;;;;12.35;10.75;;;;;;;29.49;100.00;102357.00;5073179;28;20042;-71
2023/09/16 10:51:41;;;;;;;12.02;10.82;;;;;;;29.28;100.00;102286.84;5071409;28;20119;-71
2023/09/16 10:54:13;;;;;;;12.80;11.20;;;;;;;28.99;100.00;102218.88;5072996;28;20089;-70
2023/09/16 10:56:42;;;;;;;11.32;9.98;;;;;;;30.07;100.00;102182.28;5071768;28;20028;-72
2023/09/16 10:59:13;;;;;;;12.93;10.63;;;;;;;29.59;100.00;102108.84;5073019;28;20024;-71